sensor_id;sensor_type;location;lat;lon;timestamp;P1;durP1;ratioP1;P2;durP2;ratioP2
56255;SDS011;57229;51.432;-2.598;2022-10-20T00:01:16;19.05;;;10.90;;
56255;SDS011;57229;51.432;-2.598;2022-10-20T00:03:44;18.45;;;10.85;;
56255;SDS011;57229;51.432;-2.598;2022-10-20T00:06:14;20.65;;;10.93;;
56255;SDS011;57229;51.432;-2.598;2022-10-20T00:09:43;18.13;;;10.73;;
56255;SDS011;57229;51.432;-2.598;2022-10-20T00:12:08;19.83;;;10.23;;
56255;SDS011;57229;51.432;-2.598;2022-10-20T00:14:34;18.65;;;10.60;;
56255;SDS011;57229;51.432;-2.598;2022-10-20T00:17:00;18.00;;;10.40;;
56255;SDS011;57229;51.432;-2.598;2022-10-20T00:19:26;16.85;;;10.10;;
56255;SDS011;57229;51.432;-2.598;2022-10-20T00:21:58;17.20;;;9.90;;
56255;SDS011;57229;51.432;-2.598;2022-10-20T00:24:24;19.50;;;10.40;;
56255;SDS011;57229;51.432;-2.598;2022-10-20T00:26:50;14.35;;;9.57;;
56255;SDS011;57229;51.432;-2.598;2022-10-20T00:29:16;17.23;;;9.73;;
56255;SDS011;57229;51.432;-2.598;2022-10-20T00:31:42;17.52;;;10.05;;
56255;SDS011;57229;51.432;-2.598;2022-10-20T00:34:08;14.75;;;10.10;;
56255;SDS011;57229;51.432;-2.598;2022-10-20T00:36:34;17.58;;;9.82;;
56255;SDS011;57229;51.432;-2.598;2022-10-20T00:39:00;17.00;;;9.80;;
56255;SDS011;57229;51.432;-2.598;2022-10-20T00:41:28;14.80;;;9.75;;
56255;SDS011;57229;51.432;-2.598;2022-10-20T00:43:56;15.20;;;9.57;;
56255;SDS011;57229;51.432;-2.598;2022-10-20T00:49:11;16.95;;;9.35;;
56255;SDS011;57229;51.432;-2.598;2022-10-20T00:51:39;17.98;;;9.93;;
56255;SDS011;57229;51.432;-2.598;2022-10-20T00:54:08;16.52;;;9.38;;
56255;SDS011;57229;51.432;-2.598;2022-10-20T00:56:38;14.05;;;8.80;;
56255;SDS011;57229;51.432;-2.598;2022-10-20T00:59:07;14.38;;;8.95;;
56255;SDS011;57229;51.432;-2.598;2022-10-20T01:01:36;15.30;;;9.02;;
56255;SDS011;57229;51.432;-2.598;2022-10-20T01:04:09;14.02;;;8.85;;
56255;SDS011;57229;51.432;-2.598;2022-10-20T01:06:36;16.52;;;9.25;;
56255;SDS011;57229;51.432;-2.598;2022-10-20T01:09:04;16.45;;;9.20;;
56255;SDS011;57229;51.432;-2.598;2022-10-20T01:14:31;19.00;;;10.02;;
56255;SDS011;57229;51.432;-2.598;2022-10-20T01:26:14;16.50;;;9.35;;
56255;SDS011;57229;51.432;-2.598;2022-10-20T01:28:56;15.63;;;9.07;;
56255;SDS011;57229;51.432;-2.598;2022-10-20T01:33:55;16.15;;;9.73;;
56255;SDS011;57229;51.432;-2.598;2022-10-20T01:36:40;16.15;;;9.60;;
56255;SDS011;57229;51.432;-2.598;2022-10-20T01:39:33;19.92;;;9.18;;
56255;SDS011;57229;51.432;-2.598;2022-10-20T01:42:13;16.23;;;9.13;;
56255;SDS011;57229;51.432;-2.598;2022-10-20T01:44:50;16.40;;;9.27;;
56255;SDS011;57229;51.432;-2.598;2022-10-20T01:47:20;17.15;;;9.25;;
56255;SDS011;57229;51.432;-2.598;2022-10-20T01:49:49;17.38;;;9.10;;
56255;SDS011;57229;51.432;-2.598;2022-10-20T01:52:16;16.88;;;9.00;;
56255;SDS011;57229;51.432;-2.598;2022-10-20T01:54:42;13.57;;;8.82;;
56255;SDS011;57229;51.432;-2.598;2022-10-20T02:02:37;16.08;;;8.40;;
56255;SDS011;57229;51.432;-2.598;2022-10-20T02:08:06;14.05;;;8.70;;
56255;SDS011;57229;51.432;-2.598;2022-10-20T02:10:47;12.65;;;8.60;;
56255;SDS011;57229;51.432;-2.598;2022-10-20T02:13:16;11.80;;;7.63;;
56255;SDS011;57229;51.432;-2.598;2022-10-20T02:15:45;16.23;;;8.32;;
56255;SDS011;57229;51.432;-2.598;2022-10-20T02:18:17;14.80;;;8.60;;
56255;SDS011;57229;51.432;-2.598;2022-10-20T02:20:47;12.27;;;8.30;;
56255;SDS011;57229;51.432;-2.598;2022-10-20T02:23:15;16.67;;;8.90;;
56255;SDS011;57229;51.432;-2.598;2022-10-20T02:25:42;18.20;;;8.55;;
56255;SDS011;57229;51.432;-2.598;2022-10-20T02:28:09;17.10;;;8.20;;
56255;SDS011;57229;51.432;-2.598;2022-10-20T02:30:37;17.33;;;8.52;;
56255;SDS011;57229;51.432;-2.598;2022-10-20T02:35:54;13.63;;;8.35;;
56255;SDS011;57229;51.432;-2.598;2022-10-20T02:38:22;11.73;;;8.05;;
56255;SDS011;57229;51.432;-2.598;2022-10-20T02:40:51;14.55;;;8.57;;
56255;SDS011;57229;51.432;-2.598;2022-10-20T02:43:16;19.40;;;9.50;;
56255;SDS011;57229;51.432;-2.598;2022-10-20T02:45:42;14.68;;;8.15;;
56255;SDS011;57229;51.432;-2.598;2022-10-20T02:48:08;13.73;;;7.47;;
56255;SDS011;57229;51.432;-2.598;2022-10-20T02:53:38;16.48;;;8.05;;
56255;SDS011;57229;51.432;-2.598;2022-10-20T02:56:04;11.80;;;7.35;;
56255;SDS011;57229;51.432;-2.598;2022-10-20T02:58:31;15.50;;;7.82;;
56255;SDS011;57229;51.432;-2.598;2022-10-20T03:00:57;12.70;;;7.50;;
56255;SDS011;57229;51.432;-2.598;2022-10-20T03:03:22;10.75;;;7.20;;
56255;SDS011;57229;51.432;-2.598;2022-10-20T03:05:49;11.18;;;7.65;;
56255;SDS011;57229;51.432;-2.598;2022-10-20T03:08:15;12.40;;;8.00;;
56255;SDS011;57229;51.432;-2.598;2022-10-20T03:10:41;15.02;;;7.38;;
56255;SDS011;57229;51.432;-2.598;2022-10-20T03:13:08;12.18;;;7.60;;
56255;SDS011;57229;51.432;-2.598;2022-10-20T03:15:41;9.80;;;7.07;;
56255;SDS011;57229;51.432;-2.598;2022-10-20T03:18:07;14.98;;;7.55;;
56255;SDS011;57229;51.432;-2.598;2022-10-20T03:20:32;11.00;;;7.30;;
56255;SDS011;57229;51.432;-2.598;2022-10-20T03:23:01;10.55;;;7.07;;
56255;SDS011;57229;51.432;-2.598;2022-10-20T03:25:30;12.23;;;6.25;;
56255;SDS011;57229;51.432;-2.598;2022-10-20T03:27:58;9.88;;;6.80;;
56255;SDS011;57229;51.432;-2.598;2022-10-20T03:30:27;10.13;;;6.95;;
56255;SDS011;57229;51.432;-2.598;2022-10-20T03:32:53;16.00;;;7.30;;
56255;SDS011;57229;51.432;-2.598;2022-10-20T03:35:42;9.27;;;6.65;;
56255;SDS011;57229;51.432;-2.598;2022-10-20T03:38:10;14.23;;;6.90;;
56255;SDS011;57229;51.432;-2.598;2022-10-20T03:40:36;11.98;;;6.75;;
56255;SDS011;57229;51.432;-2.598;2022-10-20T03:43:02;12.40;;;6.63;;
56255;SDS011;57229;51.432;-2.598;2022-10-20T03:45:28;12.23;;;7.13;;
56255;SDS011;57229;51.432;-2.598;2022-10-20T03:47:56;10.77;;;6.80;;
56255;SDS011;57229;51.432;-2.598;2022-10-20T03:50:22;10.45;;;6.90;;
56255;SDS011;57229;51.432;-2.598;2022-10-20T03:52:48;13.27;;;6.60;;
56255;SDS011;57229;51.432;-2.598;2022-10-20T03:55:14;11.35;;;6.45;;
56255;SDS011;57229;51.432;-2.598;2022-10-20T03:57:41;12.00;;;6.60;;
56255;SDS011;57229;51.432;-2.598;2022-10-20T04:00:07;15.27;;;6.80;;
56255;SDS011;57229;51.432;-2.598;2022-10-20T04:02:34;10.88;;;6.13;;
56255;SDS011;57229;51.432;-2.598;2022-10-20T04:05:10;11.80;;;6.63;;
56255;SDS011;57229;51.432;-2.598;2022-10-20T04:07:40;11.10;;;6.22;;
56255;SDS011;57229;51.432;-2.598;2022-10-20T04:10:06;10.82;;;6.22;;
56255;SDS011;57229;51.432;-2.598;2022-10-20T04:12:34;13.57;;;7.00;;
56255;SDS011;57229;51.432;-2.598;2022-10-20T04:14:59;9.23;;;6.18;;
56255;SDS011;57229;51.432;-2.598;2022-10-20T04:17:33;10.63;;;6.10;;
56255;SDS011;57229;51.432;-2.598;2022-10-20T04:20:06;12.68;;;6.45;;
56255;SDS011;57229;51.432;-2.598;2022-10-20T04:22:33;10.98;;;6.00;;
56255;SDS011;57229;51.432;-2.598;2022-10-20T04:25:07;8.32;;;5.75;;
56255;SDS011;57229;51.432;-2.598;2022-10-20T04:37:41;10.43;;;5.68;;
56255;SDS011;57229;51.432;-2.598;2022-10-20T04:43:40;10.20;;;5.93;;
56255;SDS011;57229;51.432;-2.598;2022-10-20T04:46:17;13.57;;;6.07;;
56255;SDS011;57229;51.432;-2.598;2022-10-20T04:48:51;10.38;;;5.55;;
56255;SDS011;57229;51.432;-2.598;2022-10-20T04:51:24;11.88;;;6.10;;
56255;SDS011;57229;51.432;-2.598;2022-10-20T04:53:54;10.10;;;5.65;;
56255;SDS011;57229;51.432;-2.598;2022-10-20T05:02:50;7.80;;;5.32;;
56255;SDS011;57229;51.432;-2.598;2022-10-20T05:11:42;9.32;;;5.45;;
56255;SDS011;57229;51.432;-2.598;2022-10-20T05:14:08;11.82;;;5.43;;
56255;SDS011;57229;51.432;-2.598;2022-10-20T05:16:37;12.70;;;5.88;;
56255;SDS011;57229;51.432;-2.598;2022-10-20T05:19:06;11.40;;;5.68;;
56255;SDS011;57229;51.432;-2.598;2022-10-20T05:21:40;13.98;;;6.20;;
56255;SDS011;57229;51.432;-2.598;2022-10-20T05:24:06;9.13;;;5.20;;
56255;SDS011;57229;51.432;-2.598;2022-10-20T05:26:36;8.70;;;5.07;;
56255;SDS011;57229;51.432;-2.598;2022-10-20T05:32:12;9.88;;;5.22;;
56255;SDS011;57229;51.432;-2.598;2022-10-20T05:34:48;7.57;;;4.78;;
56255;SDS011;57229;51.432;-2.598;2022-10-20T05:37:20;12.55;;;5.45;;
56255;SDS011;57229;51.432;-2.598;2022-10-20T05:39:50;9.30;;;4.72;;
56255;SDS011;57229;51.432;-2.598;2022-10-20T05:42:17;8.50;;;4.80;;
56255;SDS011;57229;51.432;-2.598;2022-10-20T05:45:08;11.88;;;5.25;;
56255;SDS011;57229;51.432;-2.598;2022-10-20T05:47:55;11.80;;;5.20;;
56255;SDS011;57229;51.432;-2.598;2022-10-20T05:50:21;11.55;;;4.70;;
56255;SDS011;57229;51.432;-2.598;2022-10-20T05:52:47;10.38;;;5.20;;
56255;SDS011;57229;51.432;-2.598;2022-10-20T05:55:15;8.98;;;4.78;;
56255;SDS011;57229;51.432;-2.598;2022-10-20T05:58:00;10.18;;;5.10;;
56255;SDS011;57229;51.432;-2.598;2022-10-20T06:00:26;10.88;;;4.72;;
56255;SDS011;57229;51.432;-2.598;2022-10-20T06:02:54;11.23;;;4.88;;
56255;SDS011;57229;51.432;-2.598;2022-10-20T06:05:19;10.90;;;4.82;;
56255;SDS011;57229;51.432;-2.598;2022-10-20T06:07:45;11.95;;;4.70;;
56255;SDS011;57229;51.432;-2.598;2022-10-20T06:10:11;8.82;;;4.40;;
56255;SDS011;57229;51.432;-2.598;2022-10-20T06:12:39;10.30;;;4.60;;
56255;SDS011;57229;51.432;-2.598;2022-10-20T06:29:05;10.10;;;4.07;;
56255;SDS011;57229;51.432;-2.598;2022-10-20T06:31:35;8.30;;;4.32;;
56255;SDS011;57229;51.432;-2.598;2022-10-20T06:34:09;8.82;;;4.22;;
56255;SDS011;57229;51.432;-2.598;2022-10-20T06:36:44;7.97;;;4.65;;
56255;SDS011;57229;51.432;-2.598;2022-10-20T06:39:12;8.70;;;4.38;;
56255;SDS011;57229;51.432;-2.598;2022-10-20T06:41:42;12.57;;;4.78;;
56255;SDS011;57229;51.432;-2.598;2022-10-20T06:44:10;8.25;;;4.18;;
56255;SDS011;57229;51.432;-2.598;2022-10-20T06:46:36;8.77;;;4.45;;
56255;SDS011;57229;51.432;-2.598;2022-10-20T06:49:04;10.85;;;4.60;;
56255;SDS011;57229;51.432;-2.598;2022-10-20T06:51:31;8.13;;;3.90;;
56255;SDS011;57229;51.432;-2.598;2022-10-20T06:53:58;7.18;;;4.07;;
56255;SDS011;57229;51.432;-2.598;2022-10-20T06:56:25;7.38;;;3.83;;
56255;SDS011;57229;51.432;-2.598;2022-10-20T06:58:55;7.00;;;4.18;;
56255;SDS011;57229;51.432;-2.598;2022-10-20T07:01:23;6.80;;;3.72;;
56255;SDS011;57229;51.432;-2.598;2022-10-20T07:03:55;6.75;;;3.90;;
56255;SDS011;57229;51.432;-2.598;2022-10-20T07:06:29;9.35;;;3.88;;
56255;SDS011;57229;51.432;-2.598;2022-10-20T07:08:56;8.70;;;3.78;;
56255;SDS011;57229;51.432;-2.598;2022-10-20T07:11:24;11.02;;;4.13;;
56255;SDS011;57229;51.432;-2.598;2022-10-20T07:13:54;8.25;;;4.28;;
56255;SDS011;57229;51.432;-2.598;2022-10-20T07:16:23;6.88;;;4.20;;
56255;SDS011;57229;51.432;-2.598;2022-10-20T07:18:50;12.10;;;4.45;;
56255;SDS011;57229;51.432;-2.598;2022-10-20T07:21:17;6.85;;;3.97;;
56255;SDS011;57229;51.432;-2.598;2022-10-20T07:23:54;7.50;;;3.70;;
56255;SDS011;57229;51.432;-2.598;2022-10-20T07:26:59;5.53;;;3.83;;
56255;SDS011;57229;51.432;-2.598;2022-10-20T07:29:35;6.97;;;3.70;;
56255;SDS011;57229;51.432;-2.598;2022-10-20T07:32:01;7.43;;;3.83;;
56255;SDS011;57229;51.432;-2.598;2022-10-20T07:34:27;5.07;;;3.70;;
56255;SDS011;57229;51.432;-2.598;2022-10-20T07:43:07;7.82;;;3.90;;
56255;SDS011;57229;51.432;-2.598;2022-10-20T07:45:54;6.72;;;3.63;;
56255;SDS011;57229;51.432;-2.598;2022-10-20T07:48:21;6.57;;;3.95;;
56255;SDS011;57229;51.432;-2.598;2022-10-20T07:50:47;6.03;;;3.70;;
56255;SDS011;57229;51.432;-2.598;2022-10-20T07:53:13;8.18;;;3.85;;
56255;SDS011;57229;51.432;-2.598;2022-10-20T07:55:39;7.95;;;3.90;;
56255;SDS011;57229;51.432;-2.598;2022-10-20T07:58:05;8.63;;;4.00;;
56255;SDS011;57229;51.432;-2.598;2022-10-20T08:00:30;6.15;;;3.50;;
56255;SDS011;57229;51.432;-2.598;2022-10-20T08:02:56;6.60;;;3.60;;
56255;SDS011;57229;51.432;-2.598;2022-10-20T08:05:27;8.88;;;3.50;;
56255;SDS011;57229;51.432;-2.598;2022-10-20T08:07:57;6.72;;;3.65;;
56255;SDS011;57229;51.432;-2.598;2022-10-20T08:10:24;5.50;;;3.05;;
56255;SDS011;57229;51.432;-2.598;2022-10-20T08:12:50;7.35;;;3.42;;
56255;SDS011;57229;51.432;-2.598;2022-10-20T08:15:15;7.43;;;3.30;;
56255;SDS011;57229;51.432;-2.598;2022-10-20T08:17:41;6.40;;;3.45;;
56255;SDS011;57229;51.432;-2.598;2022-10-20T08:20:07;4.60;;;2.90;;
56255;SDS011;57229;51.432;-2.598;2022-10-20T08:22:33;6.30;;;3.17;;
56255;SDS011;57229;51.432;-2.598;2022-10-20T08:24:59;7.10;;;3.35;;
56255;SDS011;57229;51.432;-2.598;2022-10-20T08:30:00;6.55;;;3.45;;
56255;SDS011;57229;51.432;-2.598;2022-10-20T08:32:26;6.40;;;3.33;;
56255;SDS011;57229;51.432;-2.598;2022-10-20T08:34:52;5.38;;;2.90;;
56255;SDS011;57229;51.432;-2.598;2022-10-20T08:37:18;7.55;;;3.47;;
56255;SDS011;57229;51.432;-2.598;2022-10-20T08:39:43;4.45;;;2.90;;
56255;SDS011;57229;51.432;-2.598;2022-10-20T08:42:09;8.07;;;3.20;;
56255;SDS011;57229;51.432;-2.598;2022-10-20T08:44:35;5.85;;;3.20;;
56255;SDS011;57229;51.432;-2.598;2022-10-20T08:47:10;5.75;;;3.38;;
56255;SDS011;57229;51.432;-2.598;2022-10-20T08:52:16;7.35;;;3.25;;
56255;SDS011;57229;51.432;-2.598;2022-10-20T08:54:45;5.55;;;3.10;;
56255;SDS011;57229;51.432;-2.598;2022-10-20T09:00:21;5.95;;;3.10;;
56255;SDS011;57229;51.432;-2.598;2022-10-20T09:08:58;5.38;;;3.03;;
56255;SDS011;57229;51.432;-2.598;2022-10-20T09:11:33;6.10;;;3.28;;
56255;SDS011;57229;51.432;-2.598;2022-10-20T09:17:34;5.88;;;3.17;;
56255;SDS011;57229;51.432;-2.598;2022-10-20T09:21:02;5.43;;;3.10;;
56255;SDS011;57229;51.432;-2.598;2022-10-20T09:23:29;3.85;;;2.88;;
56255;SDS011;57229;51.432;-2.598;2022-10-20T09:26:02;7.15;;;3.40;;
56255;SDS011;57229;51.432;-2.598;2022-10-20T09:28:28;7.40;;;3.65;;
56255;SDS011;57229;51.432;-2.598;2022-10-20T09:30:54;6.43;;;3.28;;
56255;SDS011;57229;51.432;-2.598;2022-10-20T09:33:31;3.88;;;3.00;;
56255;SDS011;57229;51.432;-2.598;2022-10-20T09:38:41;4.35;;;2.95;;
56255;SDS011;57229;51.432;-2.598;2022-10-20T09:41:12;6.28;;;3.40;;
56255;SDS011;57229;51.432;-2.598;2022-10-20T09:43:58;4.88;;;3.15;;
56255;SDS011;57229;51.432;-2.598;2022-10-20T09:46:41;4.05;;;2.92;;
56255;SDS011;57229;51.432;-2.598;2022-10-20T09:55:38;5.40;;;3.15;;
56255;SDS011;57229;51.432;-2.598;2022-10-20T10:03:27;4.97;;;2.95;;
56255;SDS011;57229;51.432;-2.598;2022-10-20T10:05:56;3.40;;;2.45;;
56255;SDS011;57229;51.432;-2.598;2022-10-20T10:08:24;4.78;;;2.90;;
56255;SDS011;57229;51.432;-2.598;2022-10-20T10:13:30;6.47;;;3.08;;
56255;SDS011;57229;51.432;-2.598;2022-10-20T10:16:04;3.60;;;2.80;;
56255;SDS011;57229;51.432;-2.598;2022-10-20T10:18:38;5.13;;;2.90;;
56255;SDS011;57229;51.432;-2.598;2022-10-20T10:21:08;5.00;;;2.88;;
56255;SDS011;57229;51.432;-2.598;2022-10-20T10:23:36;4.85;;;2.72;;
56255;SDS011;57229;51.432;-2.598;2022-10-20T10:26:32;4.25;;;2.60;;
56255;SDS011;57229;51.432;-2.598;2022-10-20T10:29:08;3.50;;;2.50;;
56255;SDS011;57229;51.432;-2.598;2022-10-20T10:31:51;3.03;;;2.60;;
56255;SDS011;57229;51.432;-2.598;2022-10-20T10:34:28;7.85;;;3.00;;
56255;SDS011;57229;51.432;-2.598;2022-10-20T10:36:58;4.32;;;2.80;;
56255;SDS011;57229;51.432;-2.598;2022-10-20T10:39:24;3.92;;;2.58;;
56255;SDS011;57229;51.432;-2.598;2022-10-20T10:41:59;4.63;;;2.63;;
56255;SDS011;57229;51.432;-2.598;2022-10-20T10:44:51;3.50;;;2.60;;
56255;SDS011;57229;51.432;-2.598;2022-10-20T10:50:30;4.95;;;2.47;;
56255;SDS011;57229;51.432;-2.598;2022-10-20T10:58:45;4.93;;;2.70;;
56255;SDS011;57229;51.432;-2.598;2022-10-20T11:09:32;3.20;;;2.60;;
56255;SDS011;57229;51.432;-2.598;2022-10-20T11:26:43;4.88;;;2.70;;
56255;SDS011;57229;51.432;-2.598;2022-10-20T11:29:30;5.18;;;2.88;;
56255;SDS011;57229;51.432;-2.598;2022-10-20T11:32:02;4.30;;;2.70;;
56255;SDS011;57229;51.432;-2.598;2022-10-20T11:34:53;4.63;;;2.60;;
56255;SDS011;57229;51.432;-2.598;2022-10-20T11:37:36;4.97;;;2.80;;
56255;SDS011;57229;51.432;-2.598;2022-10-20T11:42:36;2.67;;;2.30;;
56255;SDS011;57229;51.432;-2.598;2022-10-20T11:45:22;5.10;;;2.63;;
56255;SDS011;57229;51.432;-2.598;2022-10-20T11:47:59;3.85;;;2.53;;
56255;SDS011;57229;51.432;-2.598;2022-10-20T11:50:31;4.45;;;2.72;;
56255;SDS011;57229;51.432;-2.598;2022-10-20T11:53:12;4.85;;;2.60;;
56255;SDS011;57229;51.432;-2.598;2022-10-20T12:03:58;4.25;;;2.50;;
56255;SDS011;57229;51.432;-2.598;2022-10-20T12:06:50;3.58;;;2.33;;
56255;SDS011;57229;51.432;-2.598;2022-10-20T12:14:58;3.13;;;2.13;;
56255;SDS011;57229;51.432;-2.598;2022-10-20T12:17:32;3.28;;;2.53;;
56255;SDS011;57229;51.432;-2.598;2022-10-20T12:22:44;5.05;;;2.90;;
56255;SDS011;57229;51.432;-2.598;2022-10-20T12:36:35;3.78;;;2.53;;
56255;SDS011;57229;51.432;-2.598;2022-10-20T12:39:16;4.18;;;2.50;;
56255;SDS011;57229;51.432;-2.598;2022-10-20T12:41:54;5.57;;;2.38;;
56255;SDS011;57229;51.432;-2.598;2022-10-20T12:44:21;4.03;;;2.60;;
56255;SDS011;57229;51.432;-2.598;2022-10-20T12:46:58;4.63;;;2.55;;
56255;SDS011;57229;51.432;-2.598;2022-10-20T12:49:31;3.30;;;2.28;;
56255;SDS011;57229;51.432;-2.598;2022-10-20T12:52:03;4.20;;;2.38;;
56255;SDS011;57229;51.432;-2.598;2022-10-20T12:54:38;6.95;;;2.20;;
56255;SDS011;57229;51.432;-2.598;2022-10-20T12:57:23;7.07;;;2.67;;
56255;SDS011;57229;51.432;-2.598;2022-10-20T13:00:05;6.40;;;2.20;;
56255;SDS011;57229;51.432;-2.598;2022-10-20T13:02:55;4.40;;;2.20;;
56255;SDS011;57229;51.432;-2.598;2022-10-20T13:17:02;7.40;;;2.13;;
56255;SDS011;57229;51.432;-2.598;2022-10-20T13:19:43;2.72;;;2.13;;
56255;SDS011;57229;51.432;-2.598;2022-10-20T13:22:31;3.65;;;1.98;;
56255;SDS011;57229;51.432;-2.598;2022-10-20T13:25:12;2.78;;;2.30;;
56255;SDS011;57229;51.432;-2.598;2022-10-20T13:28:18;4.43;;;2.22;;
56255;SDS011;57229;51.432;-2.598;2022-10-20T13:30:59;5.50;;;2.20;;
56255;SDS011;57229;51.432;-2.598;2022-10-20T13:33:31;6.65;;;2.50;;
56255;SDS011;57229;51.432;-2.598;2022-10-20T13:36:00;5.28;;;2.15;;
56255;SDS011;57229;51.432;-2.598;2022-10-20T13:43:48;3.75;;;2.30;;
56255;SDS011;57229;51.432;-2.598;2022-10-20T13:49:29;3.13;;;2.10;;
56255;SDS011;57229;51.432;-2.598;2022-10-20T13:52:05;3.20;;;2.20;;
56255;SDS011;57229;51.432;-2.598;2022-10-20T13:54:45;2.80;;;2.40;;
56255;SDS011;57229;51.432;-2.598;2022-10-20T13:57:47;3.58;;;2.28;;
56255;SDS011;57229;51.432;-2.598;2022-10-20T14:00:18;2.45;;;2.00;;
56255;SDS011;57229;51.432;-2.598;2022-10-20T14:03:16;2.58;;;2.17;;
56255;SDS011;57229;51.432;-2.598;2022-10-20T14:05:42;4.72;;;2.15;;
56255;SDS011;57229;51.432;-2.598;2022-10-20T14:08:08;5.15;;;2.20;;
56255;SDS011;57229;51.432;-2.598;2022-10-20T14:10:42;5.30;;;2.35;;
56255;SDS011;57229;51.432;-2.598;2022-10-20T14:13:14;4.05;;;2.28;;
56255;SDS011;57229;51.432;-2.598;2022-10-20T14:15:49;2.92;;;2.22;;
56255;SDS011;57229;51.432;-2.598;2022-10-20T14:18:23;3.92;;;2.35;;
56255;SDS011;57229;51.432;-2.598;2022-10-20T14:23:24;3.03;;;2.05;;
56255;SDS011;57229;51.432;-2.598;2022-10-20T14:25:52;5.45;;;2.20;;
56255;SDS011;57229;51.432;-2.598;2022-10-20T14:28:18;4.63;;;2.28;;
56255;SDS011;57229;51.432;-2.598;2022-10-20T14:30:46;3.03;;;2.10;;
56255;SDS011;57229;51.432;-2.598;2022-10-20T14:33:14;3.38;;;2.10;;
56255;SDS011;57229;51.432;-2.598;2022-10-20T14:35:42;3.72;;;2.25;;
56255;SDS011;57229;51.432;-2.598;2022-10-20T14:38:20;4.30;;;2.40;;
56255;SDS011;57229;51.432;-2.598;2022-10-20T14:43:37;7.00;;;2.60;;
56255;SDS011;57229;51.432;-2.598;2022-10-20T14:46:06;5.23;;;2.43;;
56255;SDS011;57229;51.432;-2.598;2022-10-20T14:54:12;6.43;;;2.28;;
56255;SDS011;57229;51.432;-2.598;2022-10-20T14:59:34;5.47;;;2.40;;
56255;SDS011;57229;51.432;-2.598;2022-10-20T15:02:12;3.22;;;2.00;;
56255;SDS011;57229;51.432;-2.598;2022-10-20T15:04:45;2.80;;;2.00;;
56255;SDS011;57229;51.432;-2.598;2022-10-20T15:09:48;4.78;;;2.35;;
56255;SDS011;57229;51.432;-2.598;2022-10-20T15:12:16;5.68;;;2.05;;
56255;SDS011;57229;51.432;-2.598;2022-10-20T15:14:49;3.97;;;2.05;;
56255;SDS011;57229;51.432;-2.598;2022-10-20T15:17:34;5.60;;;2.45;;
56255;SDS011;57229;51.432;-2.598;2022-10-20T15:22:55;5.00;;;2.50;;
56255;SDS011;57229;51.432;-2.598;2022-10-20T15:25:22;4.43;;;2.42;;
56255;SDS011;57229;51.432;-2.598;2022-10-20T15:27:49;7.90;;;2.53;;
56255;SDS011;57229;51.432;-2.598;2022-10-20T15:30:16;2.45;;;2.20;;
56255;SDS011;57229;51.432;-2.598;2022-10-20T15:32:43;3.33;;;2.42;;
56255;SDS011;57229;51.432;-2.598;2022-10-20T15:35:12;4.53;;;2.67;;
56255;SDS011;57229;51.432;-2.598;2022-10-20T15:37:41;4.30;;;2.50;;
56255;SDS011;57229;51.432;-2.598;2022-10-20T15:40:07;3.33;;;2.30;;
56255;SDS011;57229;51.432;-2.598;2022-10-20T15:42:34;4.57;;;2.47;;
56255;SDS011;57229;51.432;-2.598;2022-10-20T15:44:59;5.88;;;2.30;;
56255;SDS011;57229;51.432;-2.598;2022-10-20T15:47:25;5.65;;;2.45;;
56255;SDS011;57229;51.432;-2.598;2022-10-20T15:49:51;5.07;;;2.22;;
56255;SDS011;57229;51.432;-2.598;2022-10-20T15:52:17;5.13;;;2.83;;
56255;SDS011;57229;51.432;-2.598;2022-10-20T15:54:42;5.68;;;2.40;;
56255;SDS011;57229;51.432;-2.598;2022-10-20T15:57:08;8.98;;;2.33;;
56255;SDS011;57229;51.432;-2.598;2022-10-20T15:59:34;5.45;;;2.17;;
56255;SDS011;57229;51.432;-2.598;2022-10-20T16:02:00;6.75;;;2.03;;
56255;SDS011;57229;51.432;-2.598;2022-10-20T16:04:30;7.13;;;2.70;;
56255;SDS011;57229;51.432;-2.598;2022-10-20T16:07:00;7.40;;;3.00;;
56255;SDS011;57229;51.432;-2.598;2022-10-20T16:09:26;5.60;;;3.70;;
56255;SDS011;57229;51.432;-2.598;2022-10-20T16:11:52;7.53;;;3.70;;
56255;SDS011;57229;51.432;-2.598;2022-10-20T16:14:18;9.82;;;4.45;;
56255;SDS011;57229;51.432;-2.598;2022-10-20T16:16:44;10.07;;;4.95;;
56255;SDS011;57229;51.432;-2.598;2022-10-20T16:19:09;14.05;;;4.70;;
56255;SDS011;57229;51.432;-2.598;2022-10-20T16:21:35;15.48;;;5.05;;
56255;SDS011;57229;51.432;-2.598;2022-10-20T16:24:01;10.90;;;4.47;;
56255;SDS011;57229;51.432;-2.598;2022-10-20T16:26:27;15.20;;;6.65;;
56255;SDS011;57229;51.432;-2.598;2022-10-20T16:28:53;13.63;;;5.70;;
56255;SDS011;57229;51.432;-2.598;2022-10-20T16:31:18;15.98;;;6.10;;
56255;SDS011;57229;51.432;-2.598;2022-10-20T16:33:44;17.83;;;8.60;;
56255;SDS011;57229;51.432;-2.598;2022-10-20T16:36:11;15.55;;;8.13;;
56255;SDS011;57229;51.432;-2.598;2022-10-20T16:38:41;21.00;;;11.15;;
56255;SDS011;57229;51.432;-2.598;2022-10-20T16:41:09;19.92;;;11.07;;
56255;SDS011;57229;51.432;-2.598;2022-10-20T16:43:39;20.70;;;11.32;;
56255;SDS011;57229;51.432;-2.598;2022-10-20T16:46:15;23.55;;;9.93;;
56255;SDS011;57229;51.432;-2.598;2022-10-20T16:48:40;22.25;;;12.10;;
56255;SDS011;57229;51.432;-2.598;2022-10-20T16:51:07;22.75;;;12.15;;
56255;SDS011;57229;51.432;-2.598;2022-10-20T16:53:34;19.95;;;8.35;;
56255;SDS011;57229;51.432;-2.598;2022-10-20T16:56:00;17.00;;;8.25;;
56255;SDS011;57229;51.432;-2.598;2022-10-20T16:58:26;17.98;;;8.48;;
56255;SDS011;57229;51.432;-2.598;2022-10-20T17:00:59;18.77;;;7.43;;
56255;SDS011;57229;51.432;-2.598;2022-10-20T17:03:27;10.13;;;5.07;;
56255;SDS011;57229;51.432;-2.598;2022-10-20T17:05:58;17.58;;;5.07;;
56255;SDS011;57229;51.432;-2.598;2022-10-20T17:08:27;23.55;;;9.43;;
56255;SDS011;57229;51.432;-2.598;2022-10-20T17:10:59;13.40;;;8.82;;
56255;SDS011;57229;51.432;-2.598;2022-10-20T17:13:27;17.98;;;9.43;;
56255;SDS011;57229;51.432;-2.598;2022-10-20T17:16:01;21.40;;;8.23;;
56255;SDS011;57229;51.432;-2.598;2022-10-20T17:18:31;17.13;;;8.00;;
56255;SDS011;57229;51.432;-2.598;2022-10-20T17:20:57;19.55;;;8.43;;
56255;SDS011;57229;51.432;-2.598;2022-10-20T17:23:23;16.73;;;7.10;;
56255;SDS011;57229;51.432;-2.598;2022-10-20T17:25:50;33.45;;;17.83;;
56255;SDS011;57229;51.432;-2.598;2022-10-20T17:28:17;30.95;;;16.15;;
56255;SDS011;57229;51.432;-2.598;2022-10-20T17:30:44;29.83;;;14.95;;
56255;SDS011;57229;51.432;-2.598;2022-10-20T17:33:11;36.08;;;17.15;;
56255;SDS011;57229;51.432;-2.598;2022-10-20T17:35:37;33.67;;;17.70;;
56255;SDS011;57229;51.432;-2.598;2022-10-20T17:38:03;33.83;;;17.25;;
56255;SDS011;57229;51.432;-2.598;2022-10-20T17:40:34;35.05;;;19.17;;
56255;SDS011;57229;51.432;-2.598;2022-10-20T17:43:02;33.28;;;18.17;;
56255;SDS011;57229;51.432;-2.598;2022-10-20T17:45:28;38.33;;;20.67;;
56255;SDS011;57229;51.432;-2.598;2022-10-20T17:47:54;42.95;;;24.35;;
56255;SDS011;57229;51.432;-2.598;2022-10-20T17:50:25;42.20;;;24.77;;
56255;SDS011;57229;51.432;-2.598;2022-10-20T17:52:52;43.22;;;23.17;;
56255;SDS011;57229;51.432;-2.598;2022-10-20T17:55:18;34.72;;;18.45;;
56255;SDS011;57229;51.432;-2.598;2022-10-20T17:57:44;29.33;;;15.60;;
56255;SDS011;57229;51.432;-2.598;2022-10-20T18:00:09;32.95;;;18.35;;
56255;SDS011;57229;51.432;-2.598;2022-10-20T18:02:35;29.40;;;15.15;;
56255;SDS011;57229;51.432;-2.598;2022-10-20T18:05:01;23.80;;;12.43;;
56255;SDS011;57229;51.432;-2.598;2022-10-20T18:07:27;29.15;;;16.35;;
56255;SDS011;57229;51.432;-2.598;2022-10-20T18:13:21;33.45;;;17.98;;
56255;SDS011;57229;51.432;-2.598;2022-10-20T18:15:47;28.30;;;15.20;;
56255;SDS011;57229;51.432;-2.598;2022-10-20T18:18:13;33.20;;;18.05;;
56255;SDS011;57229;51.432;-2.598;2022-10-20T18:20:38;31.40;;;17.60;;
56255;SDS011;57229;51.432;-2.598;2022-10-20T18:23:05;31.90;;;16.95;;
56255;SDS011;57229;51.432;-2.598;2022-10-20T18:26:11;34.83;;;18.15;;
56255;SDS011;57229;51.432;-2.598;2022-10-20T18:28:38;32.80;;;16.02;;